Terminal Aerodrome Forecast
Issued by NWS

Home | Current Version | Previous Version | Text Only | Print | Product List | Glossary On
Versions: 1 2 3 4 5 6 7 8 9 10 11 12 13 14 15 16 17 18 19 20
000
FTUS43 KFGF 250520
TAFTVF
TAF
KTVF 250520Z 2506/2606 31008KT P6SM OVC005
      TEMPO 2506/2510 5SM -DZ BR
     FM251200 33007KT P6SM OVC008
     FM252200 36007KT P6SM OVC020=

USA.gov is the U.S. government's official web portal to all federal, state and local government web resources and services.